<?xml version="1.0" encoding="UTF-8" standalone="no" ?>
<gpx xmlns="http://www.topografix.com/GPX/1/1" xmlns:xsi="http://www.w3.org/2001/XMLSchema-instance" xsi:schemaLocation="http://www.topografix.com/GPX/1/1 http://www.topografix.com/GPX/1/1/gpx.xsd" version="1.1" creator="VisuGPX - https://www.visugpx.com">
  <metadata>
    <name>ESCAPADE-Pilat</name>
  </metadata>
  <trk>
    <name><![CDATA[13132979-Montaron Bonnefond cavaliers (version Chaussitre)]]></name>
    <extensions>
      <line xmlns="http://www.topografix.com/GPX/gpx_style/0/2">
        <color>0000FF</color>
        <width>4</width>
      </line>
    </extensions>
    <trkseg>
      <trkpt lat="45.29919" lon="4.42848">
        <ele>1102</ele>
        <time>2021-05-27T12:09:22Z</time>
      </trkpt>
      <trkpt lat="45.29872" lon="4.4285">
        <ele>1103</ele>
        <time>2021-05-27T12:10:00Z</time>
      </trkpt>
      <trkpt lat="45.29815" lon="4.42946">
        <ele>1108</ele>
        <time>2021-05-27T12:11:10Z</time>
      </trkpt>
      <trkpt lat="45.29709" lon="4.43082">
        <ele>1113</ele>
        <time>2021-05-27T12:13:05Z</time>
      </trkpt>
      <trkpt lat="45.29616" lon="4.43622">
        <ele>1123</ele>
        <time>2021-05-27T12:18:18Z</time>
      </trkpt>
      <trkpt lat="45.29629" lon="4.43691">
        <ele>1123</ele>
        <time>2021-05-27T12:18:58Z</time>
      </trkpt>
      <trkpt lat="45.29728" lon="4.43837">
        <ele>1132</ele>
        <time>2021-05-27T12:20:52Z</time>
      </trkpt>
      <trkpt lat="45.29792" lon="4.43878">
        <ele>1144</ele>
        <time>2021-05-27T12:21:49Z</time>
      </trkpt>
      <trkpt lat="45.29776" lon="4.44049">
        <ele>1147</ele>
        <time>2021-05-27T12:23:26Z</time>
      </trkpt>
      <trkpt lat="45.29826" lon="4.44185">
        <ele>1157</ele>
        <time>2021-05-27T12:24:52Z</time>
      </trkpt>
      <trkpt lat="45.29889" lon="4.44133">
        <ele>1171</ele>
        <time>2021-05-27T12:25:50Z</time>
      </trkpt>
      <trkpt lat="45.29924" lon="4.44101">
        <ele>1175</ele>
        <time>2021-05-27T12:26:24Z</time>
      </trkpt>
      <trkpt lat="45.29987" lon="4.44092">
        <ele>1181</ele>
        <time>2021-05-27T12:27:14Z</time>
      </trkpt>
      <trkpt lat="45.30031" lon="4.44139">
        <ele>1192</ele>
        <time>2021-05-27T12:27:59Z</time>
      </trkpt>
      <trkpt lat="45.30118" lon="4.44073">
        <ele>1195</ele>
        <time>2021-05-27T12:29:17Z</time>
      </trkpt>
      <trkpt lat="45.30207" lon="4.44182">
        <ele>1206</ele>
        <time>2021-05-27T12:30:52Z</time>
      </trkpt>
      <trkpt lat="45.30351" lon="4.4436">
        <ele>1218</ele>
        <time>2021-05-27T12:33:24Z</time>
      </trkpt>
      <trkpt lat="45.30444" lon="4.44425">
        <ele>1227</ele>
        <time>2021-05-27T12:34:47Z</time>
      </trkpt>
      <trkpt lat="45.30544" lon="4.44414">
        <ele>1230</ele>
        <time>2021-05-27T12:36:08Z</time>
      </trkpt>
      <trkpt lat="45.30638" lon="4.44472">
        <ele>1237</ele>
        <time>2021-05-27T12:37:30Z</time>
      </trkpt>
      <trkpt lat="45.30733" lon="4.44459">
        <ele>1238</ele>
        <time>2021-05-27T12:38:46Z</time>
      </trkpt>
      <trkpt lat="45.30773" lon="4.4438">
        <ele>1236</ele>
        <time>2021-05-27T12:39:41Z</time>
      </trkpt>
      <trkpt lat="45.30805" lon="4.44187">
        <ele>1225</ele>
        <time>2021-05-27T12:41:33Z</time>
      </trkpt>
      <trkpt lat="45.30808" lon="4.44041">
        <ele>1218</ele>
        <time>2021-05-27T12:42:55Z</time>
      </trkpt>
      <trkpt lat="45.30862" lon="4.44041">
        <ele>1214</ele>
        <time>2021-05-27T12:43:38Z</time>
      </trkpt>
      <trkpt lat="45.30903" lon="4.43987">
        <ele>1205</ele>
        <time>2021-05-27T12:44:23Z</time>
      </trkpt>
      <trkpt lat="45.30983" lon="4.43929">
        <ele>1186</ele>
        <time>2021-05-27T12:45:35Z</time>
      </trkpt>
      <trkpt lat="45.31044" lon="4.43893">
        <ele>1173</ele>
        <time>2021-05-27T12:46:28Z</time>
      </trkpt>
      <trkpt lat="45.31172" lon="4.43861">
        <ele>1151</ele>
        <time>2021-05-27T12:48:12Z</time>
      </trkpt>
      <trkpt lat="45.31223" lon="4.43837">
        <ele>1140</ele>
        <time>2021-05-27T12:48:55Z</time>
      </trkpt>
      <trkpt lat="45.31312" lon="4.43811">
        <ele>1125</ele>
        <time>2021-05-27T12:50:07Z</time>
      </trkpt>
      <trkpt lat="45.314" lon="4.43781">
        <ele>1113</ele>
        <time>2021-05-27T12:51:20Z</time>
      </trkpt>
      <trkpt lat="45.31472" lon="4.43779">
        <ele>1103</ele>
        <time>2021-05-27T12:52:17Z</time>
      </trkpt>
      <trkpt lat="45.31498" lon="4.43738">
        <ele>1098</ele>
        <time>2021-05-27T12:52:49Z</time>
      </trkpt>
      <trkpt lat="45.31566" lon="4.43758">
        <ele>1093</ele>
        <time>2021-05-27T12:53:44Z</time>
      </trkpt>
      <trkpt lat="45.31638" lon="4.43697">
        <ele>1082</ele>
        <time>2021-05-27T12:54:51Z</time>
      </trkpt>
      <trkpt lat="45.31698" lon="4.43605">
        <ele>1079</ele>
        <time>2021-05-27T12:56:02Z</time>
      </trkpt>
      <trkpt lat="45.31717" lon="4.43521">
        <ele>1076</ele>
        <time>2021-05-27T12:56:52Z</time>
      </trkpt>
      <trkpt lat="45.31698" lon="4.43399">
        <ele>1068</ele>
        <time>2021-05-27T12:58:02Z</time>
      </trkpt>
      <trkpt lat="45.31711" lon="4.43232">
        <ele>1057</ele>
        <time>2021-05-27T12:59:37Z</time>
      </trkpt>
      <trkpt lat="45.31698" lon="4.43097">
        <ele>1045</ele>
        <time>2021-05-27T13:00:53Z</time>
      </trkpt>
      <trkpt lat="45.31692" lon="4.42957">
        <ele>1038</ele>
        <time>2021-05-27T13:02:12Z</time>
      </trkpt>
      <trkpt lat="45.31555" lon="4.42749">
        <ele>1027</ele>
        <time>2021-05-27T13:04:53Z</time>
      </trkpt>
      <trkpt lat="45.31516" lon="4.4271">
        <ele>1022</ele>
        <time>2021-05-27T13:05:31Z</time>
      </trkpt>
      <trkpt lat="45.31472" lon="4.42691">
        <ele>1017</ele>
        <time>2021-05-27T13:06:08Z</time>
      </trkpt>
      <trkpt lat="45.31397" lon="4.42687">
        <ele>1011</ele>
        <time>2021-05-27T13:07:08Z</time>
      </trkpt>
      <trkpt lat="45.313" lon="4.4267">
        <ele>1002</ele>
        <time>2021-05-27T13:08:26Z</time>
      </trkpt>
      <trkpt lat="45.3121" lon="4.4262">
        <ele>994</ele>
        <time>2021-05-27T13:09:43Z</time>
      </trkpt>
      <trkpt lat="45.31151" lon="4.42537">
        <ele>990</ele>
        <time>2021-05-27T13:10:50Z</time>
      </trkpt>
      <trkpt lat="45.31122" lon="4.42444">
        <ele>987</ele>
        <time>2021-05-27T13:11:47Z</time>
      </trkpt>
      <trkpt lat="45.31122" lon="4.42369">
        <ele>987</ele>
        <time>2021-05-27T13:12:29Z</time>
      </trkpt>
      <trkpt lat="45.30994" lon="4.42187">
        <ele>986</ele>
        <time>2021-05-27T13:14:54Z</time>
      </trkpt>
      <trkpt lat="45.30974" lon="4.4211">
        <ele>988</ele>
        <time>2021-05-27T13:15:41Z</time>
      </trkpt>
      <trkpt lat="45.30988" lon="4.4205">
        <ele>992</ele>
        <time>2021-05-27T13:16:16Z</time>
      </trkpt>
      <trkpt lat="45.31062" lon="4.41987">
        <ele>997</ele>
        <time>2021-05-27T13:17:25Z</time>
      </trkpt>
      <trkpt lat="45.31134" lon="4.41916">
        <ele>1002</ele>
        <time>2021-05-27T13:18:35Z</time>
      </trkpt>
      <trkpt lat="45.3117" lon="4.41844">
        <ele>1004</ele>
        <time>2021-05-27T13:19:25Z</time>
      </trkpt>
      <trkpt lat="45.31223" lon="4.41764">
        <ele>1005</ele>
        <time>2021-05-27T13:20:27Z</time>
      </trkpt>
      <trkpt lat="45.31287" lon="4.41676">
        <ele>1006</ele>
        <time>2021-05-27T13:21:38Z</time>
      </trkpt>
      <trkpt lat="45.31315" lon="4.41635">
        <ele>1007</ele>
        <time>2021-05-27T13:22:10Z</time>
      </trkpt>
      <trkpt lat="45.31324" lon="4.4153">
        <ele>1009</ele>
        <time>2021-05-27T13:23:10Z</time>
      </trkpt>
      <trkpt lat="45.31327" lon="4.41329">
        <ele>1015</ele>
        <time>2021-05-27T13:25:03Z</time>
      </trkpt>
      <trkpt lat="45.31405" lon="4.41359">
        <ele>1017</ele>
        <time>2021-05-27T13:26:08Z</time>
      </trkpt>
      <trkpt lat="45.31605" lon="4.41459">
        <ele>1013</ele>
        <time>2021-05-27T13:28:58Z</time>
      </trkpt>
      <trkpt lat="45.31774" lon="4.41456">
        <ele>1013</ele>
        <time>2021-05-27T13:31:13Z</time>
      </trkpt>
      <trkpt lat="45.31878" lon="4.41431">
        <ele>1006</ele>
        <time>2021-05-27T13:32:37Z</time>
      </trkpt>
      <trkpt lat="45.31977" lon="4.4145">
        <ele>999</ele>
        <time>2021-05-27T13:33:57Z</time>
      </trkpt>
      <trkpt lat="45.32056" lon="4.4141">
        <ele>1010</ele>
        <time>2021-05-27T13:35:05Z</time>
      </trkpt>
      <trkpt lat="45.32152" lon="4.41298">
        <ele>1016</ele>
        <time>2021-05-27T13:36:44Z</time>
      </trkpt>
      <trkpt lat="45.32248" lon="4.41137">
        <ele>1012</ele>
        <time>2021-05-27T13:38:43Z</time>
      </trkpt>
      <trkpt lat="45.32331" lon="4.41222">
        <ele>1020</ele>
        <time>2021-05-27T13:40:05Z</time>
      </trkpt>
      <trkpt lat="45.32442" lon="4.4135">
        <ele>1003</ele>
        <time>2021-05-27T13:41:59Z</time>
      </trkpt>
      <trkpt lat="45.32463" lon="4.41456">
        <ele>992</ele>
        <time>2021-05-27T13:43:01Z</time>
      </trkpt>
      <trkpt lat="45.32553" lon="4.41656">
        <ele>970</ele>
        <time>2021-05-27T13:45:15Z</time>
      </trkpt>
      <trkpt lat="45.32621" lon="4.41777">
        <ele>956</ele>
        <time>2021-05-27T13:46:42Z</time>
      </trkpt>
      <trkpt lat="45.32664" lon="4.41838">
        <ele>941</ele>
        <time>2021-05-27T13:47:31Z</time>
      </trkpt>
      <trkpt lat="45.32666" lon="4.41747">
        <ele>951</ele>
        <time>2021-05-27T13:48:22Z</time>
      </trkpt>
      <trkpt lat="45.32687" lon="4.41665">
        <ele>948</ele>
        <time>2021-05-27T13:49:11Z</time>
      </trkpt>
      <trkpt lat="45.32755" lon="4.41501">
        <ele>951</ele>
        <time>2021-05-27T13:50:58Z</time>
      </trkpt>
      <trkpt lat="45.32817" lon="4.41331">
        <ele>943</ele>
        <time>2021-05-27T13:52:46Z</time>
      </trkpt>
      <trkpt lat="45.32871" lon="4.41243">
        <ele>947</ele>
        <time>2021-05-27T13:53:52Z</time>
      </trkpt>
      <trkpt lat="45.32982" lon="4.41131">
        <ele>939</ele>
        <time>2021-05-27T13:55:41Z</time>
      </trkpt>
      <trkpt lat="45.32964" lon="4.41046">
        <ele>951</ele>
        <time>2021-05-27T13:56:31Z</time>
      </trkpt>
      <trkpt lat="45.33039" lon="4.40976">
        <ele>941</ele>
        <time>2021-05-27T13:57:42Z</time>
      </trkpt>
      <trkpt lat="45.33052" lon="4.40849">
        <ele>948</ele>
        <time>2021-05-27T13:58:55Z</time>
      </trkpt>
      <trkpt lat="45.3306" lon="4.40694">
        <ele>951</ele>
        <time>2021-05-27T14:00:22Z</time>
      </trkpt>
      <trkpt lat="45.33114" lon="4.40597">
        <ele>935</ele>
        <time>2021-05-27T14:01:32Z</time>
      </trkpt>
      <trkpt lat="45.33107" lon="4.40445">
        <ele>926</ele>
        <time>2021-05-27T14:02:58Z</time>
      </trkpt>
      <trkpt lat="45.3313" lon="4.40415">
        <ele>927</ele>
        <time>2021-05-27T14:03:23Z</time>
      </trkpt>
      <trkpt lat="45.33053" lon="4.40276">
        <ele>921</ele>
        <time>2021-05-27T14:05:02Z</time>
      </trkpt>
      <trkpt lat="45.33048" lon="4.4024">
        <ele>920</ele>
        <time>2021-05-27T14:05:23Z</time>
      </trkpt>
      <trkpt lat="45.33052" lon="4.4018">
        <ele>921</ele>
        <time>2021-05-27T14:05:57Z</time>
      </trkpt>
      <trkpt lat="45.33038" lon="4.40079">
        <ele>922</ele>
        <time>2021-05-27T14:06:55Z</time>
      </trkpt>
      <trkpt lat="45.33056" lon="4.39949">
        <ele>927</ele>
        <time>2021-05-27T14:08:09Z</time>
      </trkpt>
      <trkpt lat="45.33232" lon="4.39794">
        <ele>922</ele>
        <time>2021-05-27T14:10:55Z</time>
      </trkpt>
      <trkpt lat="45.33296" lon="4.39785">
        <ele>923</ele>
        <time>2021-05-27T14:11:47Z</time>
      </trkpt>
      <trkpt lat="45.33341" lon="4.398">
        <ele>926</ele>
        <time>2021-05-27T14:12:24Z</time>
      </trkpt>
      <trkpt lat="45.33443" lon="4.39695">
        <ele>924</ele>
        <time>2021-05-27T14:14:04Z</time>
      </trkpt>
      <trkpt lat="45.33482" lon="4.40034">
        <ele>964</ele>
        <time>2021-05-27T14:17:18Z</time>
      </trkpt>
      <trkpt lat="45.33561" lon="4.40092">
        <ele>969</ele>
        <time>2021-05-27T14:18:29Z</time>
      </trkpt>
      <trkpt lat="45.33586" lon="4.40119">
        <ele>968</ele>
        <time>2021-05-27T14:18:54Z</time>
      </trkpt>
      <trkpt lat="45.3369" lon="4.40045">
        <ele>972</ele>
        <time>2021-05-27T14:20:27Z</time>
      </trkpt>
      <trkpt lat="45.33793" lon="4.4002">
        <ele>973</ele>
        <time>2021-05-27T14:21:51Z</time>
      </trkpt>
      <trkpt lat="45.3387" lon="4.40061">
        <ele>980</ele>
        <time>2021-05-27T14:22:57Z</time>
      </trkpt>
      <trkpt lat="45.33938" lon="4.40164">
        <ele>994</ele>
        <time>2021-05-27T14:24:16Z</time>
      </trkpt>
      <trkpt lat="45.33977" lon="4.40164">
        <ele>996</ele>
        <time>2021-05-27T14:24:47Z</time>
      </trkpt>
      <trkpt lat="45.34053" lon="4.40139">
        <ele>999</ele>
        <time>2021-05-27T14:25:50Z</time>
      </trkpt>
      <trkpt lat="45.34248" lon="4.40287">
        <ele>1008</ele>
        <time>2021-05-27T14:28:47Z</time>
      </trkpt>
      <trkpt lat="45.34327" lon="4.40332">
        <ele>1017</ele>
        <time>2021-05-27T14:29:55Z</time>
      </trkpt>
      <trkpt lat="45.34441" lon="4.404">
        <ele>1018</ele>
        <time>2021-05-27T14:31:34Z</time>
      </trkpt>
      <trkpt lat="45.34462" lon="4.40242">
        <ele>1023</ele>
        <time>2021-05-27T14:33:04Z</time>
      </trkpt>
      <trkpt lat="45.3448" lon="4.40175">
        <ele>1024</ele>
        <time>2021-05-27T14:33:45Z</time>
      </trkpt>
      <trkpt lat="45.34505" lon="4.40081">
        <ele>1023</ele>
        <time>2021-05-27T14:34:41Z</time>
      </trkpt>
      <trkpt lat="45.34552" lon="4.39989">
        <ele>1018</ele>
        <time>2021-05-27T14:35:45Z</time>
      </trkpt>
      <trkpt lat="45.3464" lon="4.39851">
        <ele>1008</ele>
        <time>2021-05-27T14:37:30Z</time>
      </trkpt>
      <trkpt lat="45.3471" lon="4.39708">
        <ele>1003</ele>
        <time>2021-05-27T14:39:08Z</time>
      </trkpt>
      <trkpt lat="45.34776" lon="4.39614">
        <ele>996</ele>
        <time>2021-05-27T14:40:23Z</time>
      </trkpt>
      <trkpt lat="45.3483" lon="4.39504">
        <ele>990</ele>
        <time>2021-05-27T14:41:38Z</time>
      </trkpt>
      <trkpt lat="45.34884" lon="4.39392">
        <ele>983</ele>
        <time>2021-05-27T14:42:55Z</time>
      </trkpt>
      <trkpt lat="45.34959" lon="4.39313">
        <ele>978</ele>
        <time>2021-05-27T14:44:10Z</time>
      </trkpt>
      <trkpt lat="45.34995" lon="4.39349">
        <ele>976</ele>
        <time>2021-05-27T14:44:45Z</time>
      </trkpt>
      <trkpt lat="45.3499" lon="4.39423">
        <ele>973</ele>
        <time>2021-05-27T14:45:27Z</time>
      </trkpt>
      <trkpt lat="45.34976" lon="4.39549">
        <ele>975</ele>
        <time>2021-05-27T14:46:38Z</time>
      </trkpt>
      <trkpt lat="45.35012" lon="4.39549">
        <ele>972</ele>
        <time>2021-05-27T14:47:07Z</time>
      </trkpt>
      <trkpt lat="45.35062" lon="4.39516">
        <ele>968</ele>
        <time>2021-05-27T14:47:51Z</time>
      </trkpt>
      <trkpt lat="45.35173" lon="4.39451">
        <ele>961</ele>
        <time>2021-05-27T14:49:28Z</time>
      </trkpt>
      <trkpt lat="45.35234" lon="4.39374">
        <ele>959</ele>
        <time>2021-05-27T14:50:33Z</time>
      </trkpt>
      <trkpt lat="45.3535" lon="4.39372">
        <ele>969</ele>
        <time>2021-05-27T14:52:06Z</time>
      </trkpt>
      <trkpt lat="45.35407" lon="4.39374">
        <ele>967</ele>
        <time>2021-05-27T14:52:51Z</time>
      </trkpt>
      <trkpt lat="45.35496" lon="4.39294">
        <ele>966</ele>
        <time>2021-05-27T14:54:16Z</time>
      </trkpt>
      <trkpt lat="45.35613" lon="4.39152">
        <ele>968</ele>
        <time>2021-05-27T14:56:19Z</time>
      </trkpt>
      <trkpt lat="45.35671" lon="4.39154">
        <ele>964</ele>
        <time>2021-05-27T14:57:05Z</time>
      </trkpt>
      <trkpt lat="45.35794" lon="4.39146">
        <ele>963</ele>
        <time>2021-05-27T14:58:44Z</time>
      </trkpt>
      <trkpt lat="45.35906" lon="4.39197">
        <ele>961</ele>
        <time>2021-05-27T15:00:18Z</time>
      </trkpt>
      <trkpt lat="45.36013" lon="4.3922">
        <ele>952</ele>
        <time>2021-05-27T15:01:45Z</time>
      </trkpt>
      <trkpt lat="45.36073" lon="4.39211">
        <ele>946</ele>
        <time>2021-05-27T15:02:33Z</time>
      </trkpt>
      <trkpt lat="45.36159" lon="4.39161">
        <ele>938</ele>
        <time>2021-05-27T15:03:47Z</time>
      </trkpt>
      <trkpt lat="45.36205" lon="4.39237">
        <ele>944</ele>
        <time>2021-05-27T15:04:44Z</time>
      </trkpt>
      <trkpt lat="45.36252" lon="4.39332">
        <ele>942</ele>
        <time>2021-05-27T15:05:49Z</time>
      </trkpt>
      <trkpt lat="45.363" lon="4.39459">
        <ele>929</ele>
        <time>2021-05-27T15:07:10Z</time>
      </trkpt>
      <trkpt lat="45.36296" lon="4.39538">
        <ele>923</ele>
        <time>2021-05-27T15:07:55Z</time>
      </trkpt>
      <trkpt lat="45.36316" lon="4.39648">
        <ele>908</ele>
        <time>2021-05-27T15:08:59Z</time>
      </trkpt>
      <trkpt lat="45.3613" lon="4.39682">
        <ele>912</ele>
        <time>2021-05-27T15:11:29Z</time>
      </trkpt>
      <trkpt lat="45.36036" lon="4.39664">
        <ele>912</ele>
        <time>2021-05-27T15:12:45Z</time>
      </trkpt>
      <trkpt lat="45.3602" lon="4.39677">
        <ele>909</ele>
        <time>2021-05-27T15:13:00Z</time>
      </trkpt>
      <trkpt lat="45.36051" lon="4.39693">
        <ele>908</ele>
        <time>2021-05-27T15:13:26Z</time>
      </trkpt>
      <trkpt lat="45.36108" lon="4.39718">
        <ele>905</ele>
        <time>2021-05-27T15:14:14Z</time>
      </trkpt>
      <trkpt lat="45.36141" lon="4.39751">
        <ele>900</ele>
        <time>2021-05-27T15:14:46Z</time>
      </trkpt>
      <trkpt lat="45.36196" lon="4.39796">
        <ele>894</ele>
        <time>2021-05-27T15:15:37Z</time>
      </trkpt>
      <trkpt lat="45.36257" lon="4.39848">
        <ele>887</ele>
        <time>2021-05-27T15:16:34Z</time>
      </trkpt>
      <trkpt lat="45.36313" lon="4.39924">
        <ele>883</ele>
        <time>2021-05-27T15:17:36Z</time>
      </trkpt>
      <trkpt lat="45.36386" lon="4.40002">
        <ele>873</ele>
        <time>2021-05-27T15:18:49Z</time>
      </trkpt>
      <trkpt lat="45.36441" lon="4.39993">
        <ele>871</ele>
        <time>2021-05-27T15:19:33Z</time>
      </trkpt>
      <trkpt lat="45.36494" lon="4.39917">
        <ele>874</ele>
        <time>2021-05-27T15:20:33Z</time>
      </trkpt>
      <trkpt lat="45.36532" lon="4.3985">
        <ele>879</ele>
        <time>2021-05-27T15:21:22Z</time>
      </trkpt>
      <trkpt lat="45.3657" lon="4.39895">
        <ele>864</ele>
        <time>2021-05-27T15:22:01Z</time>
      </trkpt>
      <trkpt lat="45.36616" lon="4.39958">
        <ele>849</ele>
        <time>2021-05-27T15:22:52Z</time>
      </trkpt>
      <trkpt lat="45.3669" lon="4.39975">
        <ele>838</ele>
        <time>2021-05-27T15:23:52Z</time>
      </trkpt>
      <trkpt lat="45.3674" lon="4.39939">
        <ele>837</ele>
        <time>2021-05-27T15:24:37Z</time>
      </trkpt>
      <trkpt lat="45.3677" lon="4.3983">
        <ele>845</ele>
        <time>2021-05-27T15:25:43Z</time>
      </trkpt>
      <trkpt lat="45.36798" lon="4.39673">
        <ele>859</ele>
        <time>2021-05-27T15:27:14Z</time>
      </trkpt>
      <trkpt lat="45.36774" lon="4.39515">
        <ele>877</ele>
        <time>2021-05-27T15:28:45Z</time>
      </trkpt>
      <trkpt lat="45.36746" lon="4.3941">
        <ele>880</ele>
        <time>2021-05-27T15:29:48Z</time>
      </trkpt>
      <trkpt lat="45.36761" lon="4.39273">
        <ele>868</ele>
        <time>2021-05-27T15:31:06Z</time>
      </trkpt>
      <trkpt lat="45.36744" lon="4.39215">
        <ele>866</ele>
        <time>2021-05-27T15:31:42Z</time>
      </trkpt>
      <trkpt lat="45.36711" lon="4.39152">
        <ele>873</ele>
        <time>2021-05-27T15:32:26Z</time>
      </trkpt>
      <trkpt lat="45.36777" lon="4.39009">
        <ele>877</ele>
        <time>2021-05-27T15:34:02Z</time>
      </trkpt>
      <trkpt lat="45.36831" lon="4.38901">
        <ele>881</ele>
        <time>2021-05-27T15:35:17Z</time>
      </trkpt>
      <trkpt lat="45.36841" lon="4.38854">
        <ele>885</ele>
        <time>2021-05-27T15:35:44Z</time>
      </trkpt>
      <trkpt lat="45.36831" lon="4.38789">
        <ele>889</ele>
        <time>2021-05-27T15:36:22Z</time>
      </trkpt>
      <trkpt lat="45.36818" lon="4.38768">
        <ele>891</ele>
        <time>2021-05-27T15:36:38Z</time>
      </trkpt>
      <trkpt lat="45.36789" lon="4.38688">
        <ele>895</ele>
        <time>2021-05-27T15:37:28Z</time>
      </trkpt>
      <trkpt lat="45.36732" lon="4.38641">
        <ele>898</ele>
        <time>2021-05-27T15:38:21Z</time>
      </trkpt>
      <trkpt lat="45.36657" lon="4.38549">
        <ele>894</ele>
        <time>2021-05-27T15:39:40Z</time>
      </trkpt>
      <trkpt lat="45.36609" lon="4.3849">
        <ele>887</ele>
        <time>2021-05-27T15:40:31Z</time>
      </trkpt>
      <trkpt lat="45.36567" lon="4.38501">
        <ele>888</ele>
        <time>2021-05-27T15:41:05Z</time>
      </trkpt>
      <trkpt lat="45.36503" lon="4.38466">
        <ele>883</ele>
        <time>2021-05-27T15:42:00Z</time>
      </trkpt>
      <trkpt lat="45.36442" lon="4.38396">
        <ele>879</ele>
        <time>2021-05-27T15:43:03Z</time>
      </trkpt>
      <trkpt lat="45.36409" lon="4.38286">
        <ele>876</ele>
        <time>2021-05-27T15:44:10Z</time>
      </trkpt>
      <trkpt lat="45.36378" lon="4.38235">
        <ele>875</ele>
        <time>2021-05-27T15:44:48Z</time>
      </trkpt>
      <trkpt lat="45.36345" lon="4.38089">
        <ele>886</ele>
        <time>2021-05-27T15:46:14Z</time>
      </trkpt>
      <trkpt lat="45.3639" lon="4.38022">
        <ele>882</ele>
        <time>2021-05-27T15:47:06Z</time>
      </trkpt>
      <trkpt lat="45.36453" lon="4.37992">
        <ele>878</ele>
        <time>2021-05-27T15:48:00Z</time>
      </trkpt>
      <trkpt lat="45.36512" lon="4.37961">
        <ele>876</ele>
        <time>2021-05-27T15:48:50Z</time>
      </trkpt>
      <trkpt lat="45.36581" lon="4.37932">
        <ele>873</ele>
        <time>2021-05-27T15:49:48Z</time>
      </trkpt>
      <trkpt lat="45.36666" lon="4.37905">
        <ele>870</ele>
        <time>2021-05-27T15:50:57Z</time>
      </trkpt>
      <trkpt lat="45.36754" lon="4.37885">
        <ele>865</ele>
        <time>2021-05-27T15:52:09Z</time>
      </trkpt>
      <trkpt lat="45.36787" lon="4.37817">
        <ele>866</ele>
        <time>2021-05-27T15:52:55Z</time>
      </trkpt>
      <trkpt lat="45.36789" lon="4.37732">
        <ele>871</ele>
        <time>2021-05-27T15:53:43Z</time>
      </trkpt>
      <trkpt lat="45.36851" lon="4.37678">
        <ele>871</ele>
        <time>2021-05-27T15:54:41Z</time>
      </trkpt>
      <trkpt lat="45.36964" lon="4.3766">
        <ele>874</ele>
        <time>2021-05-27T15:56:12Z</time>
      </trkpt>
      <trkpt lat="45.37088" lon="4.37607">
        <ele>880</ele>
        <time>2021-05-27T15:57:56Z</time>
      </trkpt>
      <trkpt lat="45.37166" lon="4.37559">
        <ele>883</ele>
        <time>2021-05-27T15:59:04Z</time>
      </trkpt>
      <trkpt lat="45.37239" lon="4.37461">
        <ele>879</ele>
        <time>2021-05-27T16:00:24Z</time>
      </trkpt>
      <trkpt lat="45.37291" lon="4.37384">
        <ele>872</ele>
        <time>2021-05-27T16:01:24Z</time>
      </trkpt>
      <trkpt lat="45.37338" lon="4.37358">
        <ele>869</ele>
        <time>2021-05-27T16:02:05Z</time>
      </trkpt>
      <trkpt lat="45.37366" lon="4.37322">
        <ele>869</ele>
        <time>2021-05-27T16:02:35Z</time>
      </trkpt>
      <trkpt lat="45.37403" lon="4.37243">
        <ele>872</ele>
        <time>2021-05-27T16:03:28Z</time>
      </trkpt>
      <trkpt lat="45.37452" lon="4.37286">
        <ele>870</ele>
        <time>2021-05-27T16:04:14Z</time>
      </trkpt>
      <trkpt lat="45.37537" lon="4.37313">
        <ele>864</ele>
        <time>2021-05-27T16:05:24Z</time>
      </trkpt>
      <trkpt lat="45.37663" lon="4.37306">
        <ele>854</ele>
        <time>2021-05-27T16:07:05Z</time>
      </trkpt>
      <trkpt lat="45.37768" lon="4.3723">
        <ele>857</ele>
        <time>2021-05-27T16:08:40Z</time>
      </trkpt>
      <trkpt lat="45.37849" lon="4.37171">
        <ele>863</ele>
        <time>2021-05-27T16:09:52Z</time>
      </trkpt>
      <trkpt lat="45.37935" lon="4.3708">
        <ele>865</ele>
        <time>2021-05-27T16:11:18Z</time>
      </trkpt>
      <trkpt lat="45.38016" lon="4.36864">
        <ele>852</ele>
        <time>2021-05-27T16:13:36Z</time>
      </trkpt>
      <trkpt lat="45.38066" lon="4.3688">
        <ele>852</ele>
        <time>2021-05-27T16:14:17Z</time>
      </trkpt>
      <trkpt lat="45.3812" lon="4.36826">
        <ele>848</ele>
        <time>2021-05-27T16:15:10Z</time>
      </trkpt>
      <trkpt lat="45.38172" lon="4.36795">
        <ele>843</ele>
        <time>2021-05-27T16:15:55Z</time>
      </trkpt>
    </trkseg>
  </trk>
</gpx>